sensor_id;sensor_type;location;lat;lon;timestamp;temperature;humidity
65291;SHT30;51893;59.754;10.110;2022-07-24T00:01:10;15.37;72.48
65291;SHT30;51893;59.754;10.110;2022-07-24T00:03:38;15.39;72.18
65291;SHT30;51893;59.754;10.110;2022-07-24T00:06:06;15.42;72.14
65291;SHT30;51893;59.754;10.110;2022-07-24T00:08:33;15.36;72.35
65291;SHT30;51893;59.754;10.110;2022-07-24T00:11:01;15.26;72.78
65291;SHT30;51893;59.754;10.110;2022-07-24T00:13:29;15.23;72.83
65291;SHT30;51893;59.754;10.110;2022-07-24T00:15:57;15.16;73.00
65291;SHT30;51893;59.754;10.110;2022-07-24T00:18:25;15.13;73.19
65291;SHT30;51893;59.754;10.110;2022-07-24T00:20:53;15.05;73.53
65291;SHT30;51893;59.754;10.110;2022-07-24T00:23:21;15.04;73.36
65291;SHT30;51893;59.754;10.110;2022-07-24T00:25:50;15.04;73.32
65291;SHT30;51893;59.754;10.110;2022-07-24T00:28:18;15.01;73.44
65291;SHT30;51893;59.754;10.110;2022-07-24T00:30:48;14.97;73.42
65291;SHT30;51893;59.754;10.110;2022-07-24T00:33:18;14.94;73.36
65291;SHT30;51893;59.754;10.110;2022-07-24T00:35:46;14.85;73.57
65291;SHT30;51893;59.754;10.110;2022-07-24T00:38:13;14.80;73.58
65291;SHT30;51893;59.754;10.110;2022-07-24T00:40:41;14.82;73.44
65291;SHT30;51893;59.754;10.110;2022-07-24T00:43:09;14.77;73.55
65291;SHT30;51893;59.754;10.110;2022-07-24T00:45:37;14.80;73.45
65291;SHT30;51893;59.754;10.110;2022-07-24T00:48:06;14.73;73.70
65291;SHT30;51893;59.754;10.110;2022-07-24T00:50:35;14.65;74.34
65291;SHT30;51893;59.754;10.110;2022-07-24T00:53:04;14.61;75.10
65291;SHT30;51893;59.754;10.110;2022-07-24T00:55:33;14.59;75.17
65291;SHT30;51893;59.754;10.110;2022-07-24T00:58:01;14.57;75.44
65291;SHT30;51893;59.754;10.110;2022-07-24T01:00:30;14.58;75.24
65291;SHT30;51893;59.754;10.110;2022-07-24T01:02:58;14.62;74.69
65291;SHT30;51893;59.754;10.110;2022-07-24T01:05:27;14.64;74.32
65291;SHT30;51893;59.754;10.110;2022-07-24T01:07:55;14.68;73.96
65291;SHT30;51893;59.754;10.110;2022-07-24T01:10:24;14.68;73.95
65291;SHT30;51893;59.754;10.110;2022-07-24T01:12:52;14.66;73.86
65291;SHT30;51893;59.754;10.110;2022-07-24T01:15:20;14.60;74.01
65291;SHT30;51893;59.754;10.110;2022-07-24T01:17:48;14.56;74.19
65291;SHT30;51893;59.754;10.110;2022-07-24T01:20:16;14.53;74.26
65291;SHT30;51893;59.754;10.110;2022-07-24T01:22:45;14.47;74.16
65291;SHT30;51893;59.754;10.110;2022-07-24T01:25:13;14.36;74.49
65291;SHT30;51893;59.754;10.110;2022-07-24T01:27:41;14.37;74.43
65291;SHT30;51893;59.754;10.110;2022-07-24T01:30:09;14.34;74.52
65291;SHT30;51893;59.754;10.110;2022-07-24T01:32:38;14.32;74.42
65291;SHT30;51893;59.754;10.110;2022-07-24T01:35:06;14.29;74.58
65291;SHT30;51893;59.754;10.110;2022-07-24T01:37:34;14.26;74.70
65291;SHT30;51893;59.754;10.110;2022-07-24T01:40:03;14.27;74.83
65291;SHT30;51893;59.754;10.110;2022-07-24T01:42:31;14.22;74.94
65291;SHT30;51893;59.754;10.110;2022-07-24T01:44:59;14.19;74.93
65291;SHT30;51893;59.754;10.110;2022-07-24T01:47:27;14.15;74.98
65291;SHT30;51893;59.754;10.110;2022-07-24T01:49:54;14.15;75.04
65291;SHT30;51893;59.754;10.110;2022-07-24T01:52:22;14.15;75.19
65291;SHT30;51893;59.754;10.110;2022-07-24T01:54:53;14.22;75.18
65291;SHT30;51893;59.754;10.110;2022-07-24T01:57:21;14.21;75.26
65291;SHT30;51893;59.754;10.110;2022-07-24T01:59:49;14.20;75.30
65291;SHT30;51893;59.754;10.110;2022-07-24T02:02:17;14.21;75.27
65291;SHT30;51893;59.754;10.110;2022-07-24T02:04:45;14.23;75.13
65291;SHT30;51893;59.754;10.110;2022-07-24T02:07:13;14.26;74.99
65291;SHT30;51893;59.754;10.110;2022-07-24T02:09:41;14.29;75.16
65291;SHT30;51893;59.754;10.110;2022-07-24T02:12:09;14.30;75.44
65291;SHT30;51893;59.754;10.110;2022-07-24T02:14:39;14.30;75.72
65291;SHT30;51893;59.754;10.110;2022-07-24T02:17:07;14.31;75.49
65291;SHT30;51893;59.754;10.110;2022-07-24T02:19:35;14.33;75.43
65291;SHT30;51893;59.754;10.110;2022-07-24T02:22:03;14.33;75.56
65291;SHT30;51893;59.754;10.110;2022-07-24T02:24:31;14.28;75.80
65291;SHT30;51893;59.754;10.110;2022-07-24T02:26:59;14.30;75.67
65291;SHT30;51893;59.754;10.110;2022-07-24T02:29:29;14.31;75.58
65291;SHT30;51893;59.754;10.110;2022-07-24T02:31:58;14.28;75.74
65291;SHT30;51893;59.754;10.110;2022-07-24T02:34:27;14.28;75.59
65291;SHT30;51893;59.754;10.110;2022-07-24T02:36:55;14.26;75.63
65291;SHT30;51893;59.754;10.110;2022-07-24T02:39:23;14.19;75.71
65291;SHT30;51893;59.754;10.110;2022-07-24T02:41:51;14.18;75.75
65291;SHT30;51893;59.754;10.110;2022-07-24T02:44:18;14.16;75.84
65291;SHT30;51893;59.754;10.110;2022-07-24T02:46:46;14.13;75.80
65291;SHT30;51893;59.754;10.110;2022-07-24T02:49:14;14.15;75.67
65291;SHT30;51893;59.754;10.110;2022-07-24T02:51:42;14.13;75.70
65291;SHT30;51893;59.754;10.110;2022-07-24T02:54:11;14.07;76.03
65291;SHT30;51893;59.754;10.110;2022-07-24T02:56:39;14.08;75.85
65291;SHT30;51893;59.754;10.110;2022-07-24T02:59:07;14.06;76.01
65291;SHT30;51893;59.754;10.110;2022-07-24T03:01:35;14.07;76.49
65291;SHT30;51893;59.754;10.110;2022-07-24T03:04:04;14.03;76.10
65291;SHT30;51893;59.754;10.110;2022-07-24T03:06:32;14.03;75.88
65291;SHT30;51893;59.754;10.110;2022-07-24T03:09:02;13.98;76.33
65291;SHT30;51893;59.754;10.110;2022-07-24T03:11:31;13.97;76.38
65291;SHT30;51893;59.754;10.110;2022-07-24T03:13:59;13.95;76.48
65291;SHT30;51893;59.754;10.110;2022-07-24T03:16:27;13.98;76.60
65291;SHT30;51893;59.754;10.110;2022-07-24T03:18:55;13.98;76.60
65291;SHT30;51893;59.754;10.110;2022-07-24T03:21:23;13.91;76.84
65291;SHT30;51893;59.754;10.110;2022-07-24T03:24:11;13.89;76.90
65291;SHT30;51893;59.754;10.110;2022-07-24T03:26:39;13.90;77.25
65291;SHT30;51893;59.754;10.110;2022-07-24T03:29:06;13.90;77.38
65291;SHT30;51893;59.754;10.110;2022-07-24T03:31:35;13.92;77.71
65291;SHT30;51893;59.754;10.110;2022-07-24T03:34:03;13.98;77.67
65291;SHT30;51893;59.754;10.110;2022-07-24T03:36:31;14.02;77.68
65291;SHT30;51893;59.754;10.110;2022-07-24T03:38:59;14.00;77.84
65291;SHT30;51893;59.754;10.110;2022-07-24T03:41:28;13.97;77.83
65291;SHT30;51893;59.754;10.110;2022-07-24T03:43:56;13.94;77.83
65291;SHT30;51893;59.754;10.110;2022-07-24T03:46:24;13.90;77.98
65291;SHT30;51893;59.754;10.110;2022-07-24T03:48:52;13.87;78.09
65291;SHT30;51893;59.754;10.110;2022-07-24T03:51:20;13.91;78.01
65291;SHT30;51893;59.754;10.110;2022-07-24T03:53:49;13.93;78.16
65291;SHT30;51893;59.754;10.110;2022-07-24T03:56:21;13.98;78.55
65291;SHT30;51893;59.754;10.110;2022-07-24T03:58:52;14.01;78.90
65291;SHT30;51893;59.754;10.110;2022-07-24T04:01:21;14.09;79.33
65291;SHT30;51893;59.754;10.110;2022-07-24T04:03:49;14.16;79.40
65291;SHT30;51893;59.754;10.110;2022-07-24T04:06:17;14.23;79.88
65291;SHT30;51893;59.754;10.110;2022-07-24T04:08:45;14.29;80.27
65291;SHT30;51893;59.754;10.110;2022-07-24T04:11:14;14.40;80.64
65291;SHT30;51893;59.754;10.110;2022-07-24T04:13:42;14.52;81.20
65291;SHT30;51893;59.754;10.110;2022-07-24T04:16:10;14.60;80.95
65291;SHT30;51893;59.754;10.110;2022-07-24T04:18:38;14.67;81.03
65291;SHT30;51893;59.754;10.110;2022-07-24T04:21:06;14.75;81.09
65291;SHT30;51893;59.754;10.110;2022-07-24T04:23:34;14.81;81.34
65291;SHT30;51893;59.754;10.110;2022-07-24T04:26:02;14.89;81.58
65291;SHT30;51893;59.754;10.110;2022-07-24T04:28:31;15.02;81.70
65291;SHT30;51893;59.754;10.110;2022-07-24T04:30:59;15.11;81.85
65291;SHT30;51893;59.754;10.110;2022-07-24T04:33:26;15.19;82.00
65291;SHT30;51893;59.754;10.110;2022-07-24T04:35:54;15.22;81.97
65291;SHT30;51893;59.754;10.110;2022-07-24T04:38:22;15.23;81.50
65291;SHT30;51893;59.754;10.110;2022-07-24T04:40:50;15.22;81.24
65291;SHT30;51893;59.754;10.110;2022-07-24T04:43:18;15.20;81.30
65291;SHT30;51893;59.754;10.110;2022-07-24T04:45:46;15.21;81.39
65291;SHT30;51893;59.754;10.110;2022-07-24T04:48:13;15.22;81.36
65291;SHT30;51893;59.754;10.110;2022-07-24T04:50:41;15.23;81.45
65291;SHT30;51893;59.754;10.110;2022-07-24T04:53:09;15.26;81.56
65291;SHT30;51893;59.754;10.110;2022-07-24T04:55:37;15.29;81.68
65291;SHT30;51893;59.754;10.110;2022-07-24T04:58:05;15.34;82.12
65291;SHT30;51893;59.754;10.110;2022-07-24T05:00:33;15.41;82.59
65291;SHT30;51893;59.754;10.110;2022-07-24T05:03:00;15.46;82.85
65291;SHT30;51893;59.754;10.110;2022-07-24T05:05:28;15.51;83.05
65291;SHT30;51893;59.754;10.110;2022-07-24T05:07:56;15.59;83.22
65291;SHT30;51893;59.754;10.110;2022-07-24T05:10:24;15.65;83.32
65291;SHT30;51893;59.754;10.110;2022-07-24T05:12:52;15.72;83.24
65291;SHT30;51893;59.754;10.110;2022-07-24T05:15:19;15.75;83.29
65291;SHT30;51893;59.754;10.110;2022-07-24T05:17:47;15.74;83.31
65291;SHT30;51893;59.754;10.110;2022-07-24T05:20:15;15.71;83.60
65291;SHT30;51893;59.754;10.110;2022-07-24T05:22:43;15.73;83.85
65291;SHT30;51893;59.754;10.110;2022-07-24T05:25:11;15.79;83.90
65291;SHT30;51893;59.754;10.110;2022-07-24T05:27:39;15.85;83.85
65291;SHT30;51893;59.754;10.110;2022-07-24T05:30:07;15.86;83.88
65291;SHT30;51893;59.754;10.110;2022-07-24T05:32:35;15.86;83.95
65291;SHT30;51893;59.754;10.110;2022-07-24T05:35:03;15.86;84.03
65291;SHT30;51893;59.754;10.110;2022-07-24T05:37:32;15.87;83.95
65291;SHT30;51893;59.754;10.110;2022-07-24T05:40:00;15.93;83.93
65291;SHT30;51893;59.754;10.110;2022-07-24T05:42:28;15.95;83.94
65291;SHT30;51893;59.754;10.110;2022-07-24T05:44:55;15.99;83.92
65291;SHT30;51893;59.754;10.110;2022-07-24T05:47:23;16.08;83.59
65291;SHT30;51893;59.754;10.110;2022-07-24T05:49:51;16.21;83.35
65291;SHT30;51893;59.754;10.110;2022-07-24T05:52:19;16.30;82.95
65291;SHT30;51893;59.754;10.110;2022-07-24T05:54:47;16.41;82.57
65291;SHT30;51893;59.754;10.110;2022-07-24T05:57:14;16.50;81.94
65291;SHT30;51893;59.754;10.110;2022-07-24T05:59:42;16.60;81.54
65291;SHT30;51893;59.754;10.110;2022-07-24T06:02:10;16.68;81.11
65291;SHT30;51893;59.754;10.110;2022-07-24T06:04:38;16.79;80.62
65291;SHT30;51893;59.754;10.110;2022-07-24T06:07:09;16.88;80.21
65291;SHT30;51893;59.754;10.110;2022-07-24T06:09:38;16.98;79.77
65291;SHT30;51893;59.754;10.110;2022-07-24T06:12:07;17.05;79.40
65291;SHT30;51893;59.754;10.110;2022-07-24T06:14:35;17.13;78.99
65291;SHT30;51893;59.754;10.110;2022-07-24T06:17:03;17.16;78.79
65291;SHT30;51893;59.754;10.110;2022-07-24T06:19:31;17.21;78.48
65291;SHT30;51893;59.754;10.110;2022-07-24T06:21:59;17.25;78.20
65291;SHT30;51893;59.754;10.110;2022-07-24T06:24:26;17.32;77.92
65291;SHT30;51893;59.754;10.110;2022-07-24T06:26:54;17.40;77.86
65291;SHT30;51893;59.754;10.110;2022-07-24T06:29:39;17.47;77.48
65291;SHT30;51893;59.754;10.110;2022-07-24T06:32:07;17.56;77.01
65291;SHT30;51893;59.754;10.110;2022-07-24T06:34:35;17.64;76.67
65291;SHT30;51893;59.754;10.110;2022-07-24T06:37:03;17.79;76.42
65291;SHT30;51893;59.754;10.110;2022-07-24T06:39:31;17.89;76.13
65291;SHT30;51893;59.754;10.110;2022-07-24T06:41:59;17.98;76.01
65291;SHT30;51893;59.754;10.110;2022-07-24T06:44:27;18.07;75.43
65291;SHT30;51893;59.754;10.110;2022-07-24T06:46:55;18.11;74.91
65291;SHT30;51893;59.754;10.110;2022-07-24T06:49:22;18.19;74.83
65291;SHT30;51893;59.754;10.110;2022-07-24T06:51:50;18.22;74.51
65291;SHT30;51893;59.754;10.110;2022-07-24T06:54:21;18.23;74.36
65291;SHT30;51893;59.754;10.110;2022-07-24T06:56:49;18.32;74.47
65291;SHT30;51893;59.754;10.110;2022-07-24T06:59:18;18.32;73.91
65291;SHT30;51893;59.754;10.110;2022-07-24T07:01:46;18.40;74.10
65291;SHT30;51893;59.754;10.110;2022-07-24T07:04:14;18.48;73.98
65291;SHT30;51893;59.754;10.110;2022-07-24T07:06:43;18.59;73.86
65291;SHT30;51893;59.754;10.110;2022-07-24T07:09:11;18.68;73.50
65291;SHT30;51893;59.754;10.110;2022-07-24T07:11:39;18.83;73.19
65291;SHT30;51893;59.754;10.110;2022-07-24T07:14:07;18.98;73.10
65291;SHT30;51893;59.754;10.110;2022-07-24T07:16:39;19.11;72.73
65291;SHT30;51893;59.754;10.110;2022-07-24T07:19:06;19.23;72.37
65291;SHT30;51893;59.754;10.110;2022-07-24T07:21:35;19.33;72.09
65291;SHT30;51893;59.754;10.110;2022-07-24T07:24:04;19.48;71.84
65291;SHT30;51893;59.754;10.110;2022-07-24T07:26:33;19.67;71.42
65291;SHT30;51893;59.754;10.110;2022-07-24T07:29:01;19.80;70.80
65291;SHT30;51893;59.754;10.110;2022-07-24T07:31:29;19.83;70.12
65291;SHT30;51893;59.754;10.110;2022-07-24T07:33:57;19.77;69.93
65291;SHT30;51893;59.754;10.110;2022-07-24T07:36:26;19.71;69.74
65291;SHT30;51893;59.754;10.110;2022-07-24T07:38:54;19.58;69.58
65291;SHT30;51893;59.754;10.110;2022-07-24T07:41:22;19.52;69.59
65291;SHT30;51893;59.754;10.110;2022-07-24T07:43:51;19.53;69.64
65291;SHT30;51893;59.754;10.110;2022-07-24T07:46:19;19.53;69.36
65291;SHT30;51893;59.754;10.110;2022-07-24T07:48:47;19.58;69.64
65291;SHT30;51893;59.754;10.110;2022-07-24T07:51:15;19.62;69.65
65291;SHT30;51893;59.754;10.110;2022-07-24T07:53:50;19.66;68.96
65291;SHT30;51893;59.754;10.110;2022-07-24T07:56:18;19.72;68.96
65291;SHT30;51893;59.754;10.110;2022-07-24T07:58:49;19.78;69.12
65291;SHT30;51893;59.754;10.110;2022-07-24T08:01:16;19.86;69.23
65291;SHT30;51893;59.754;10.110;2022-07-24T08:03:44;19.92;68.90
65291;SHT30;51893;59.754;10.110;2022-07-24T08:06:13;19.96;68.81
65291;SHT30;51893;59.754;10.110;2022-07-24T08:08:42;20.00;68.94
65291;SHT30;51893;59.754;10.110;2022-07-24T08:11:09;19.95;69.00
65291;SHT30;51893;59.754;10.110;2022-07-24T08:13:37;19.93;69.29
65291;SHT30;51893;59.754;10.110;2022-07-24T08:16:05;19.96;69.13
65291;SHT30;51893;59.754;10.110;2022-07-24T08:18:34;19.98;69.05
65291;SHT30;51893;59.754;10.110;2022-07-24T08:21:02;19.93;68.81
65291;SHT30;51893;59.754;10.110;2022-07-24T08:23:31;19.90;68.81
65291;SHT30;51893;59.754;10.110;2022-07-24T08:25:58;19.91;68.92
65291;SHT30;51893;59.754;10.110;2022-07-24T08:28:26;19.92;68.72
65291;SHT30;51893;59.754;10.110;2022-07-24T08:30:54;19.91;68.62
65291;SHT30;51893;59.754;10.110;2022-07-24T08:33:22;19.93;68.39
65291;SHT30;51893;59.754;10.110;2022-07-24T08:35:50;19.88;68.29
65291;SHT30;51893;59.754;10.110;2022-07-24T08:38:17;19.82;68.53
65291;SHT30;51893;59.754;10.110;2022-07-24T08:40:45;19.78;68.75
65291;SHT30;51893;59.754;10.110;2022-07-24T08:43:13;19.73;68.24
65291;SHT30;51893;59.754;10.110;2022-07-24T08:45:42;19.68;68.17
65291;SHT30;51893;59.754;10.110;2022-07-24T08:48:11;19.64;68.26
65291;SHT30;51893;59.754;10.110;2022-07-24T08:50:40;19.67;68.37
65291;SHT30;51893;59.754;10.110;2022-07-24T08:53:10;19.74;68.22
65291;SHT30;51893;59.754;10.110;2022-07-24T08:55:38;19.79;68.29
65291;SHT30;51893;59.754;10.110;2022-07-24T08:58:06;19.85;68.23
65291;SHT30;51893;59.754;10.110;2022-07-24T09:00:34;19.94;67.93
65291;SHT30;51893;59.754;10.110;2022-07-24T09:03:02;20.04;66.53
65291;SHT30;51893;59.754;10.110;2022-07-24T09:05:30;20.05;66.03
65291;SHT30;51893;59.754;10.110;2022-07-24T09:08:09;20.06;65.78
65291;SHT30;51893;59.754;10.110;2022-07-24T09:10:52;20.13;65.83
65291;SHT30;51893;59.754;10.110;2022-07-24T09:13:33;20.26;65.69
65291;SHT30;51893;59.754;10.110;2022-07-24T09:16:27;20.33;65.69
65291;SHT30;51893;59.754;10.110;2022-07-24T09:19:03;20.37;65.31
65291;SHT30;51893;59.754;10.110;2022-07-24T09:21:42;20.39;65.01
65291;SHT30;51893;59.754;10.110;2022-07-24T09:24:18;20.47;64.97
65291;SHT30;51893;59.754;10.110;2022-07-24T09:26:49;20.63;64.53
65291;SHT30;51893;59.754;10.110;2022-07-24T09:29:21;20.82;64.53
65291;SHT30;51893;59.754;10.110;2022-07-24T09:31:59;20.95;64.32
65291;SHT30;51893;59.754;10.110;2022-07-24T09:34:29;20.97;63.89
65291;SHT30;51893;59.754;10.110;2022-07-24T09:37:07;21.02;64.07
65291;SHT30;51893;59.754;10.110;2022-07-24T09:39:36;21.16;64.04
65291;SHT30;51893;59.754;10.110;2022-07-24T09:42:05;21.21;63.72
65291;SHT30;51893;59.754;10.110;2022-07-24T09:44:34;21.32;63.92
65291;SHT30;51893;59.754;10.110;2022-07-24T09:47:03;21.44;63.56
65291;SHT30;51893;59.754;10.110;2022-07-24T09:49:34;21.48;63.32
65291;SHT30;51893;59.754;10.110;2022-07-24T09:54:50;21.56;63.11
65291;SHT30;51893;59.754;10.110;2022-07-24T09:59:57;21.62;62.91
65291;SHT30;51893;59.754;10.110;2022-07-24T10:02:34;21.66;63.15
65291;SHT30;51893;59.754;10.110;2022-07-24T10:05:04;21.74;63.32
65291;SHT30;51893;59.754;10.110;2022-07-24T10:07:33;21.78;63.12
65291;SHT30;51893;59.754;10.110;2022-07-24T10:10:03;21.83;63.25
65291;SHT30;51893;59.754;10.110;2022-07-24T10:12:31;21.83;63.02
65291;SHT30;51893;59.754;10.110;2022-07-24T10:15:00;21.73;62.86
65291;SHT30;51893;59.754;10.110;2022-07-24T10:20:31;21.61;63.59
65291;SHT30;51893;59.754;10.110;2022-07-24T10:26:02;21.53;64.13
65291;SHT30;51893;59.754;10.110;2022-07-24T10:28:40;21.46;64.50
65291;SHT30;51893;59.754;10.110;2022-07-24T10:31:12;21.34;64.33
65291;SHT30;51893;59.754;10.110;2022-07-24T10:33:46;21.28;64.16
65291;SHT30;51893;59.754;10.110;2022-07-24T10:36:22;21.25;64.09
65291;SHT30;51893;59.754;10.110;2022-07-24T10:39:04;21.28;64.46
65291;SHT30;51893;59.754;10.110;2022-07-24T10:41:59;21.30;64.68
65291;SHT30;51893;59.754;10.110;2022-07-24T10:44:29;21.28;64.76
65291;SHT30;51893;59.754;10.110;2022-07-24T10:47:07;21.33;65.08
65291;SHT30;51893;59.754;10.110;2022-07-24T10:52:23;21.37;64.81
65291;SHT30;51893;59.754;10.110;2022-07-24T11:00:38;21.35;65.60
65291;SHT30;51893;59.754;10.110;2022-07-24T11:11:13;21.21;65.45
65291;SHT30;51893;59.754;10.110;2022-07-24T11:13:47;21.22;65.51
65291;SHT30;51893;59.754;10.110;2022-07-24T11:21:34;21.04;65.65
65291;SHT30;51893;59.754;10.110;2022-07-24T11:24:17;20.96;66.03
65291;SHT30;51893;59.754;10.110;2022-07-24T11:29:29;20.88;65.82
65291;SHT30;51893;59.754;10.110;2022-07-24T11:32:06;20.82;65.88
65291;SHT30;51893;59.754;10.110;2022-07-24T11:34:46;20.73;66.24
65291;SHT30;51893;59.754;10.110;2022-07-24T11:37:18;20.69;66.26
65291;SHT30;51893;59.754;10.110;2022-07-24T11:39:48;20.68;66.33
65291;SHT30;51893;59.754;10.110;2022-07-24T11:42:17;20.68;66.30
65291;SHT30;51893;59.754;10.110;2022-07-24T11:44:46;20.62;66.38
65291;SHT30;51893;59.754;10.110;2022-07-24T11:47:24;20.60;66.59
65291;SHT30;51893;59.754;10.110;2022-07-24T11:49:55;20.61;66.56
65291;SHT30;51893;59.754;10.110;2022-07-24T11:52:30;20.58;66.53
65291;SHT30;51893;59.754;10.110;2022-07-24T11:55:12;20.57;66.77
65291;SHT30;51893;59.754;10.110;2022-07-24T11:57:46;20.56;66.97
65291;SHT30;51893;59.754;10.110;2022-07-24T12:00:37;20.52;67.02
65291;SHT30;51893;59.754;10.110;2022-07-24T12:03:05;20.53;67.11
65291;SHT30;51893;59.754;10.110;2022-07-24T12:05:35;20.56;67.23
65291;SHT30;51893;59.754;10.110;2022-07-24T12:08:17;20.58;67.27
65291;SHT30;51893;59.754;10.110;2022-07-24T12:10:54;20.56;67.36
65291;SHT30;51893;59.754;10.110;2022-07-24T12:13:24;20.50;67.52
65291;SHT30;51893;59.754;10.110;2022-07-24T12:15:52;20.51;67.79
65291;SHT30;51893;59.754;10.110;2022-07-24T12:18:20;20.51;67.85
65291;SHT30;51893;59.754;10.110;2022-07-24T12:20:58;20.43;67.97
65291;SHT30;51893;59.754;10.110;2022-07-24T12:23:30;20.30;68.33
65291;SHT30;51893;59.754;10.110;2022-07-24T12:26:00;20.17;68.69
65291;SHT30;51893;59.754;10.110;2022-07-24T12:28:28;20.08;69.08
65291;SHT30;51893;59.754;10.110;2022-07-24T12:30:56;20.05;69.28
65291;SHT30;51893;59.754;10.110;2022-07-24T12:33:25;20.02;69.42
65291;SHT30;51893;59.754;10.110;2022-07-24T12:36:00;20.04;69.56
65291;SHT30;51893;59.754;10.110;2022-07-24T12:38:41;20.06;69.54
65291;SHT30;51893;59.754;10.110;2022-07-24T12:41:20;20.09;69.56
65291;SHT30;51893;59.754;10.110;2022-07-24T12:44:00;20.06;69.44
65291;SHT30;51893;59.754;10.110;2022-07-24T12:46:33;20.06;69.75
65291;SHT30;51893;59.754;10.110;2022-07-24T12:49:13;20.08;69.50
65291;SHT30;51893;59.754;10.110;2022-07-24T12:54:22;20.05;69.47
65291;SHT30;51893;59.754;10.110;2022-07-24T12:56:53;20.04;69.32
65291;SHT30;51893;59.754;10.110;2022-07-24T12:59:28;20.02;69.46
65291;SHT30;51893;59.754;10.110;2022-07-24T13:04:43;20.04;69.69
65291;SHT30;51893;59.754;10.110;2022-07-24T13:07:14;20.08;69.79
65291;SHT30;51893;59.754;10.110;2022-07-24T13:09:45;20.06;70.07
65291;SHT30;51893;59.754;10.110;2022-07-24T13:12:13;20.07;69.93
65291;SHT30;51893;59.754;10.110;2022-07-24T13:14:42;20.10;69.97
65291;SHT30;51893;59.754;10.110;2022-07-24T13:17:14;20.14;69.62
65291;SHT30;51893;59.754;10.110;2022-07-24T13:19:48;20.16;69.69
65291;SHT30;51893;59.754;10.110;2022-07-24T13:22:19;20.19;69.52
65291;SHT30;51893;59.754;10.110;2022-07-24T13:24:47;20.16;69.42
65291;SHT30;51893;59.754;10.110;2022-07-24T13:27:15;20.15;69.47
65291;SHT30;51893;59.754;10.110;2022-07-24T13:29:45;20.13;69.40
65291;SHT30;51893;59.754;10.110;2022-07-24T13:32:14;20.13;69.03
65291;SHT30;51893;59.754;10.110;2022-07-24T13:34:49;20.10;68.16
65291;SHT30;51893;59.754;10.110;2022-07-24T13:37:18;20.06;67.91
65291;SHT30;51893;59.754;10.110;2022-07-24T13:39:47;20.04;67.46
65291;SHT30;51893;59.754;10.110;2022-07-24T13:42:15;20.01;67.34
65291;SHT30;51893;59.754;10.110;2022-07-24T13:44:43;19.95;68.42
65291;SHT30;51893;59.754;10.110;2022-07-24T13:47:11;19.83;68.94
65291;SHT30;51893;59.754;10.110;2022-07-24T13:49:39;19.78;69.57
65291;SHT30;51893;59.754;10.110;2022-07-24T13:52:06;19.75;69.82
65291;SHT30;51893;59.754;10.110;2022-07-24T13:54:36;19.77;69.93
65291;SHT30;51893;59.754;10.110;2022-07-24T13:57:04;19.77;69.97
65291;SHT30;51893;59.754;10.110;2022-07-24T13:59:32;19.76;70.34
65291;SHT30;51893;59.754;10.110;2022-07-24T14:02:00;19.76;70.11
65291;SHT30;51893;59.754;10.110;2022-07-24T14:04:29;19.72;70.10
65291;SHT30;51893;59.754;10.110;2022-07-24T14:06:58;19.71;70.30
65291;SHT30;51893;59.754;10.110;2022-07-24T14:09:27;19.68;70.06
65291;SHT30;51893;59.754;10.110;2022-07-24T14:11:56;19.68;69.98
65291;SHT30;51893;59.754;10.110;2022-07-24T14:14:24;19.66;69.49
65291;SHT30;51893;59.754;10.110;2022-07-24T14:16:54;19.63;69.19
65291;SHT30;51893;59.754;10.110;2022-07-24T14:19:23;19.59;68.71
65291;SHT30;51893;59.754;10.110;2022-07-24T14:21:51;19.50;68.31
65291;SHT30;51893;59.754;10.110;2022-07-24T14:24:19;19.47;68.59
65291;SHT30;51893;59.754;10.110;2022-07-24T14:26:49;19.46;68.70
65291;SHT30;51893;59.754;10.110;2022-07-24T14:29:17;19.47;68.98
65291;SHT30;51893;59.754;10.110;2022-07-24T14:31:45;19.48;68.79
65291;SHT30;51893;59.754;10.110;2022-07-24T14:34:14;19.43;69.25
65291;SHT30;51893;59.754;10.110;2022-07-24T14:36:43;19.35;69.89
65291;SHT30;51893;59.754;10.110;2022-07-24T14:39:11;19.27;70.17
65291;SHT30;51893;59.754;10.110;2022-07-24T14:41:39;19.18;70.64
65291;SHT30;51893;59.754;10.110;2022-07-24T14:44:07;19.12;71.24
65291;SHT30;51893;59.754;10.110;2022-07-24T14:46:38;19.09;71.52
65291;SHT30;51893;59.754;10.110;2022-07-24T14:49:07;19.07;72.27
65291;SHT30;51893;59.754;10.110;2022-07-24T14:51:36;19.03;72.64
65291;SHT30;51893;59.754;10.110;2022-07-24T14:54:06;18.94;72.50
65291;SHT30;51893;59.754;10.110;2022-07-24T14:56:37;18.89;73.06
65291;SHT30;51893;59.754;10.110;2022-07-24T14:59:07;18.81;73.13
65291;SHT30;51893;59.754;10.110;2022-07-24T15:01:46;18.77;73.23
65291;SHT30;51893;59.754;10.110;2022-07-24T15:04:14;18.78;73.53
65291;SHT30;51893;59.754;10.110;2022-07-24T15:06:42;18.78;73.22
65291;SHT30;51893;59.754;10.110;2022-07-24T15:09:10;18.78;73.63
65291;SHT30;51893;59.754;10.110;2022-07-24T15:11:38;18.80;74.05
65291;SHT30;51893;59.754;10.110;2022-07-24T15:14:05;18.80;73.98
65291;SHT30;51893;59.754;10.110;2022-07-24T15:16:34;18.77;74.10
65291;SHT30;51893;59.754;10.110;2022-07-24T15:19:03;18.74;74.29
65291;SHT30;51893;59.754;10.110;2022-07-24T15:21:35;18.75;74.79
65291;SHT30;51893;59.754;10.110;2022-07-24T15:24:04;18.77;75.31
65291;SHT30;51893;59.754;10.110;2022-07-24T15:26:35;18.77;75.28
65291;SHT30;51893;59.754;10.110;2022-07-24T15:29:04;18.76;75.90
65291;SHT30;51893;59.754;10.110;2022-07-24T15:31:33;18.73;75.91
65291;SHT30;51893;59.754;10.110;2022-07-24T15:34:04;18.68;76.11
65291;SHT30;51893;59.754;10.110;2022-07-24T15:36:36;18.64;76.30
65291;SHT30;51893;59.754;10.110;2022-07-24T15:39:05;18.56;76.66
65291;SHT30;51893;59.754;10.110;2022-07-24T15:41:35;18.52;76.60
65291;SHT30;51893;59.754;10.110;2022-07-24T15:44:04;18.48;76.81
65291;SHT30;51893;59.754;10.110;2022-07-24T15:46:34;18.46;77.02
65291;SHT30;51893;59.754;10.110;2022-07-24T15:49:03;18.43;77.08
65291;SHT30;51893;59.754;10.110;2022-07-24T15:51:33;18.40;77.47
65291;SHT30;51893;59.754;10.110;2022-07-24T15:54:01;18.38;77.78
65291;SHT30;51893;59.754;10.110;2022-07-24T15:56:30;18.34;77.94
65291;SHT30;51893;59.754;10.110;2022-07-24T15:58:58;18.32;78.19
65291;SHT30;51893;59.754;10.110;2022-07-24T16:01:26;18.31;78.07
65291;SHT30;51893;59.754;10.110;2022-07-24T16:04:12;18.26;78.51
65291;SHT30;51893;59.754;10.110;2022-07-24T16:06:42;18.23;78.47
65291;SHT30;51893;59.754;10.110;2022-07-24T16:09:13;18.18;78.56
65291;SHT30;51893;59.754;10.110;2022-07-24T16:11:41;18.17;78.75